createdAt,value
2022-12-15T00:01:48.283Z,99595.61
2022-12-15T00:04:16.853Z,99609.84
2022-12-15T00:06:45.031Z,99597.25
2022-12-15T00:09:14.616Z,99582.27
2022-12-15T00:11:43.637Z,99570.30
2022-12-15T00:14:11.812Z,99553.81
2022-12-15T00:16:39.985Z,99551.40
2022-12-15T00:19:08.269Z,99546.54
2022-12-15T00:21:36.243Z,99543.55
2022-12-15T00:24:04.440Z,99540.49
2022-12-15T00:26:32.504Z,99534.56
2022-12-15T00:29:00.577Z,99527.52
2022-12-15T00:31:28.817Z,99509.77
2022-12-15T00:33:57.861Z,99523.29
2022-12-15T00:36:25.909Z,99521.63
2022-12-15T00:38:56.157Z,99520.11
2022-12-15T00:41:27.679Z,99540.31
2022-12-15T00:43:55.709Z,99541.91
2022-12-15T00:46:23.862Z,99529.48
2022-12-15T00:48:52.910Z,99538.95
2022-12-15T00:51:21.221Z,99557.38
2022-12-15T00:53:49.607Z,99546.98
2022-12-15T00:56:18.128Z,99545.10
2022-12-15T00:58:46.381Z,99562.17
2022-12-15T01:01:14.249Z,99562.31
2022-12-15T01:03:42.523Z,99554.56
2022-12-15T01:06:13.238Z,99559.05
2022-12-15T01:08:41.329Z,99574.87
2022-12-15T01:11:09.422Z,99581.52
2022-12-15T01:13:37.632Z,99580.00
2022-12-15T01:16:13.209Z,99583.23
2022-12-15T01:18:41.257Z,99592.29
2022-12-15T01:21:10.973Z,99595.02
2022-12-15T01:23:41.084Z,99593.17
2022-12-15T01:26:09.180Z,99596.52
2022-12-15T01:28:37.357Z,99589.26
2022-12-15T01:31:12.738Z,99585.48
2022-12-15T01:33:41.065Z,99580.41
2022-12-15T01:36:09.869Z,99584.10
2022-12-15T01:38:38.030Z,99582.34
2022-12-15T01:41:10.415Z,99571.29
2022-12-15T01:43:40.570Z,99574.83
2022-12-15T01:46:17.137Z,99580.70
2022-12-15T01:49:14.485Z,99579.16
2022-12-15T01:51:50.733Z,99574.66
2022-12-15T01:54:29.279Z,99571.48
2022-12-15T01:57:03.342Z,99564.30
2022-12-15T01:59:36.186Z,99557.75
2022-12-15T02:02:04.846Z,99559.41
2022-12-15T02:04:34.211Z,99563.64
2022-12-15T02:07:02.239Z,99564.29
2022-12-15T02:09:30.836Z,99563.95
2022-12-15T02:12:26.236Z,99551.38
2022-12-15T02:15:08.898Z,99552.66
2022-12-15T02:17:55.038Z,99544.13
2022-12-15T02:20:40.352Z,99546.11
2022-12-15T02:23:17.382Z,99546.56
2022-12-15T02:25:54.881Z,99542.09
2022-12-15T02:28:29.120Z,99538.19
2022-12-15T02:31:15.505Z,99535.90
2022-12-15T02:34:09.116Z,99534.11
2022-12-15T02:36:41.380Z,99531.79
2022-12-15T02:39:12.333Z,99530.82
2022-12-15T02:41:44.277Z,99536.60
2022-12-15T02:44:18.466Z,99540.31
2022-12-15T02:47:08.588Z,99531.80
2022-12-15T02:49:55.429Z,99523.45
2022-12-15T02:52:55.945Z,99520.95
2022-12-15T02:55:46.316Z,99512.89
2022-12-15T02:58:23.608Z,99524.85
2022-12-15T03:01:00.593Z,99519.11
2022-12-15T03:03:31.885Z,99519.14
2022-12-15T03:06:00.931Z,99528.39
2022-12-15T03:08:29.129Z,99533.71
2022-12-15T03:10:58.569Z,99534.31
2022-12-15T03:13:26.804Z,99537.44
2022-12-15T03:15:55.970Z,99533.63
2022-12-15T03:18:24.470Z,99524.66
2022-12-15T03:20:52.694Z,99520.02
2022-12-15T03:23:20.907Z,99528.77
2022-12-15T03:25:49.635Z,99535.83
2022-12-15T03:28:18.509Z,99527.11
2022-12-15T03:30:50.386Z,99527.23
2022-12-15T03:33:19.107Z,99524.06
2022-12-15T03:35:47.236Z,99523.73
2022-12-15T03:38:15.361Z,99525.96
2022-12-15T03:40:44.181Z,99534.98
2022-12-15T03:43:12.555Z,99542.95
2022-12-15T03:45:40.698Z,99552.08
2022-12-15T03:48:09.122Z,99547.11
2022-12-15T03:50:37.194Z,99537.11
2022-12-15T03:53:05.801Z,99529.79
2022-12-15T03:55:34.175Z,99525.92
2022-12-15T03:58:02.260Z,99532.23
2022-12-15T04:00:30.439Z,99523.52
2022-12-15T04:02:59.494Z,99521.26
2022-12-15T04:05:33.050Z,99517.09
2022-12-15T04:08:02.432Z,99515.80
2022-12-15T04:10:34.765Z,99519.33
2022-12-15T04:13:06.093Z,99524.91
2022-12-15T04:15:35.459Z,99521.02
2022-12-15T04:18:06.105Z,99522.23
2022-12-15T04:20:34.741Z,99520.70
2022-12-15T04:23:02.858Z,99523.27
2022-12-15T04:25:31.161Z,99519.61
2022-12-15T04:28:01.742Z,99519.73
2022-12-15T04:30:31.895Z,99521.83
2022-12-15T04:33:00.613Z,99521.84
2022-12-15T04:35:29.186Z,99522.87
2022-12-15T04:37:57.750Z,99517.76
2022-12-15T04:40:25.726Z,99510.71
2022-12-15T04:42:53.827Z,99511.67
2022-12-15T04:45:24.801Z,99516.28
2022-12-15T04:47:52.798Z,99520.31
2022-12-15T04:50:20.836Z,99513.29
2022-12-15T04:52:48.921Z,99506.36
2022-12-15T04:55:17.169Z,99505.07
2022-12-15T04:57:45.187Z,99503.70
2022-12-15T05:00:13.848Z,99503.67
2022-12-15T05:02:41.926Z,99507.59
2022-12-15T05:05:10.241Z,99519.66
2022-12-15T05:07:38.351Z,99523.11
2022-12-15T05:10:12.739Z,99522.47
2022-12-15T05:12:44.240Z,99526.16
2022-12-15T05:15:12.774Z,99531.67
2022-12-15T05:17:41.907Z,99534.94
2022-12-15T05:20:10.344Z,99538.10
2022-12-15T05:22:38.386Z,99537.50
2022-12-15T05:25:06.857Z,99543.55
2022-12-15T05:27:34.993Z,99542.63
2022-12-15T05:30:03.247Z,99546.13
2022-12-15T05:32:32.689Z,99541.11
2022-12-15T05:35:01.046Z,99543.89
2022-12-15T05:37:29.443Z,99546.75
2022-12-15T05:39:57.475Z,99549.23
2022-12-15T05:42:25.546Z,99550.16
2022-12-15T05:44:53.544Z,99554.94
2022-12-15T05:47:21.934Z,99557.80
2022-12-15T05:49:50.143Z,99558.08
2022-12-15T05:52:18.330Z,99552.73
2022-12-15T05:54:46.565Z,99551.77
2022-12-15T05:57:14.680Z,99560.31
2022-12-15T05:59:42.960Z,99568.00
2022-12-15T06:02:11.231Z,99573.64
2022-12-15T06:04:39.862Z,99583.08
2022-12-15T06:07:07.947Z,99583.72
2022-12-15T06:09:36.143Z,99584.52
2022-12-15T06:12:04.448Z,99585.60
2022-12-15T06:14:32.604Z,99592.16
2022-12-15T06:17:00.719Z,99596.64
2022-12-15T06:19:28.949Z,99605.83
2022-12-15T06:21:57.127Z,99614.02
2022-12-15T06:24:25.305Z,99613.11
2022-12-15T06:26:53.491Z,99618.38
2022-12-15T06:29:21.770Z,99622.52
2022-12-15T06:31:49.873Z,99625.08
2022-12-15T06:34:18.749Z,99620.81
2022-12-15T06:36:47.145Z,99621.23
2022-12-15T06:39:16.600Z,99613.83
2022-12-15T06:41:44.900Z,99614.81
2022-12-15T06:44:15.292Z,99615.38
2022-12-15T06:46:44.162Z,99616.71
2022-12-15T06:49:12.693Z,99617.39
2022-12-15T06:51:40.879Z,99619.56
2022-12-15T06:54:09.864Z,99626.97
2022-12-15T06:56:39.366Z,99631.83
2022-12-15T06:59:07.916Z,99637.24
2022-12-15T07:01:36.143Z,99640.56
2022-12-15T07:04:04.850Z,99644.06
2022-12-15T07:06:37.049Z,99639.67
2022-12-15T07:09:08.120Z,99636.89
2022-12-15T07:11:36.389Z,99633.00
2022-12-15T07:14:04.926Z,99633.45
2022-12-15T07:16:33.736Z,99625.77
2022-12-15T07:19:02.173Z,99624.85
2022-12-15T07:21:30.297Z,99627.62
2022-12-15T07:23:59.410Z,99629.33
2022-12-15T07:26:28.855Z,99628.90
2022-12-15T07:28:56.858Z,99636.94
2022-12-15T07:31:25.427Z,99641.98
2022-12-15T07:33:53.514Z,99649.04
2022-12-15T07:36:21.873Z,99647.13
2022-12-15T07:38:51.585Z,99639.65
2022-12-15T07:41:20.572Z,99636.43
2022-12-15T07:43:48.933Z,99639.36
2022-12-15T07:46:18.428Z,99645.05
2022-12-15T07:48:50.966Z,99649.27
2022-12-15T07:51:21.483Z,99652.77
2022-12-15T07:53:50.739Z,99657.05
2022-12-15T07:56:20.365Z,99651.70
2022-12-15T07:58:49.414Z,99648.58
2022-12-15T08:01:18.945Z,99649.06
2022-12-15T08:03:48.957Z,99646.29
2022-12-15T08:06:17.207Z,99645.25
2022-12-15T08:08:49.973Z,99642.58
2022-12-15T08:11:22.084Z,99643.23
2022-12-15T08:14:10.481Z,99645.51
2022-12-15T08:16:39.492Z,99635.33
2022-12-15T08:19:13.595Z,99635.42
2022-12-15T08:21:43.267Z,99631.08
2022-12-15T08:24:12.099Z,99623.02
2022-12-15T08:26:42.008Z,99622.95
2022-12-15T08:32:02.868Z,99628.42
2022-12-15T08:34:31.296Z,99631.58
2022-12-15T08:36:59.406Z,99637.79
2022-12-15T08:39:27.573Z,99640.45
2022-12-15T08:41:56.678Z,99640.01
2022-12-15T08:44:24.725Z,99638.66
2022-12-15T08:46:52.780Z,99641.91
2022-12-15T08:49:22.377Z,99640.54
2022-12-15T08:51:50.856Z,99651.45
2022-12-15T08:54:20.043Z,99659.23
2022-12-15T08:56:48.995Z,99664.65
2022-12-15T08:59:17.378Z,99667.84
2022-12-15T09:01:45.582Z,99672.56
2022-12-15T09:04:13.994Z,99673.45
2022-12-15T09:06:42.907Z,99672.65
2022-12-15T09:09:13.746Z,99672.56
2022-12-15T09:11:41.846Z,99675.27
2022-12-15T09:14:10.037Z,99671.04
2022-12-15T09:16:38.268Z,99672.83
2022-12-15T09:19:06.860Z,99671.48
2022-12-15T09:21:35.348Z,99675.18
2022-12-15T09:24:04.542Z,99667.26
2022-12-15T09:26:34.643Z,99665.83
2022-12-15T09:29:02.811Z,99665.05
2022-12-15T09:31:33.325Z,99658.21
2022-12-15T09:34:02.654Z,99654.81
2022-12-15T09:36:32.331Z,99651.71
2022-12-15T09:39:01.148Z,99650.52
2022-12-15T09:41:34.840Z,99657.98
2022-12-15T09:44:17.614Z,99662.48
2022-12-15T09:46:51.380Z,99659.88
2022-12-15T09:49:49.904Z,99663.23
2022-12-15T09:52:24.264Z,99664.13
2022-12-15T09:54:53.746Z,99666.05
2022-12-15T09:57:37.077Z,99666.84
2022-12-15T10:00:05.205Z,99667.41
2022-12-15T10:02:51.599Z,99657.30
2022-12-15T10:06:15.465Z,99656.74
2022-12-15T10:08:52.898Z,99643.52
2022-12-15T10:11:23.755Z,99644.12
2022-12-15T10:14:03.013Z,99644.21
2022-12-15T10:16:47.952Z,99646.88
2022-12-15T10:19:27.035Z,99642.29
2022-12-15T10:21:57.524Z,99630.16
2022-12-15T10:25:08.658Z,99628.54
2022-12-15T10:27:30.345Z,99631.80
2022-12-15T10:30:08.888Z,99632.13
2022-12-15T10:32:51.278Z,99637.02
2022-12-15T10:35:26.318Z,99630.09
2022-12-15T10:38:04.578Z,99627.71
2022-12-15T10:40:50.525Z,99625.32
2022-12-15T10:43:40.311Z,99626.80
2022-12-15T10:46:11.697Z,99620.24
2022-12-15T10:48:41.429Z,99619.73
2022-12-15T10:51:33.178Z,99622.09
2022-12-15T10:54:12.490Z,99618.87
2022-12-15T10:56:54.721Z,99621.98
2022-12-15T10:59:29.701Z,99628.58
2022-12-15T11:02:25.541Z,99620.90
2022-12-15T11:04:57.600Z,99617.56
2022-12-15T11:07:35.171Z,99614.40
2022-12-15T11:10:16.448Z,99604.88
2022-12-15T11:12:58.362Z,99599.39
2022-12-15T11:15:55.803Z,99597.71
2022-12-15T11:18:48.866Z,99599.23
2022-12-15T11:21:45.108Z,99596.73
2022-12-15T11:24:20.941Z,99595.74
2022-12-15T11:26:49.237Z,99591.94
2022-12-15T11:29:23.613Z,99588.38
2022-12-15T11:31:53.208Z,99587.16
2022-12-15T11:34:25.602Z,99585.76
2022-12-15T11:37:07.926Z,99586.67
2022-12-15T11:39:56.013Z,99584.86
2022-12-15T11:42:45.894Z,99587.27
2022-12-15T11:45:48.259Z,99585.71
2022-12-15T11:48:26.127Z,99587.21
2022-12-15T11:51:03.086Z,99580.55
2022-12-15T11:54:15.649Z,99582.23
2022-12-15T11:56:53.134Z,99571.69
2022-12-15T11:59:20.956Z,99570.65
2022-12-15T12:02:03.467Z,99567.31
2022-12-15T12:05:07.191Z,99562.85
2022-12-15T12:07:45.591Z,99553.31
2022-12-15T12:10:29.283Z,99542.64
2022-12-15T12:13:04.803Z,99542.77
2022-12-15T12:15:42.724Z,99542.81
2022-12-15T12:18:42.701Z,99541.07
2022-12-15T12:21:24.226Z,99539.83
2022-12-15T12:24:00.686Z,99538.63
2022-12-15T12:26:28.814Z,99542.36
2022-12-15T12:29:06.663Z,99536.45
2022-12-15T12:31:40.586Z,99542.19
2022-12-15T12:34:22.729Z,99545.27
2022-12-15T12:36:53.082Z,99536.28
2022-12-15T12:39:24.826Z,99532.05
2022-12-15T12:42:09.130Z,99537.64
2022-12-15T12:44:38.913Z,99534.81
2022-12-15T12:47:12.691Z,99538.09
2022-12-15T12:49:50.785Z,99540.05
2022-12-15T12:52:32.443Z,99544.96
2022-12-15T12:55:09.565Z,99542.39
2022-12-15T12:57:45.355Z,99542.84
2022-12-15T13:00:32.577Z,99539.95
2022-12-15T13:03:13.711Z,99540.98
2022-12-15T13:05:43.632Z,99531.44
2022-12-15T13:08:14.633Z,99531.03
2022-12-15T13:10:47.925Z,99534.70
2022-12-15T13:13:18.827Z,99537.25
2022-12-15T13:15:51.375Z,99533.37
2022-12-15T13:18:27.252Z,99531.36
2022-12-15T13:20:57.377Z,99527.95
2022-12-15T13:23:27.075Z,99524.13
2022-12-15T13:25:59.039Z,99529.52
2022-12-15T13:28:36.691Z,99528.83
2022-12-15T13:31:17.019Z,99528.50
2022-12-15T13:33:51.142Z,99524.68
2022-12-15T13:36:37.841Z,99528.84
2022-12-15T13:39:28.553Z,99522.86
2022-12-15T13:44:55.084Z,99518.20
2022-12-15T13:47:27.756Z,99523.27
2022-12-15T13:50:03.577Z,99520.67
2022-12-15T13:53:18.010Z,99518.45
2022-12-15T13:55:53.060Z,99525.48
2022-12-15T13:58:24.079Z,99519.95
2022-12-15T14:00:57.395Z,99520.50
2022-12-15T14:03:25.665Z,99520.09
2022-12-15T14:05:56.627Z,99514.84
2022-12-15T14:08:29.205Z,99519.27
2022-12-15T14:11:00.167Z,99524.58
2022-12-15T14:13:36.286Z,99526.11
2022-12-15T14:16:14.772Z,99524.95
2022-12-15T14:18:43.924Z,99527.11
2022-12-15T14:21:23.039Z,99525.20
2022-12-15T14:24:28.293Z,99523.38
2022-12-15T14:26:41.558Z,99515.78
2022-12-15T14:29:10.930Z,99515.88
2022-12-15T14:31:40.590Z,99511.91
2022-12-15T14:34:13.805Z,99506.81
2022-12-15T14:36:43.945Z,99495.72
2022-12-15T14:39:30.731Z,99490.89
2022-12-15T14:41:59.845Z,99493.16
2022-12-15T14:44:37.982Z,99489.58
2022-12-15T14:47:21.349Z,99485.29
2022-12-15T14:49:51.437Z,99494.28
2022-12-15T14:52:28.287Z,99498.19
2022-12-15T14:54:59.534Z,99499.52
2022-12-15T14:57:46.658Z,99503.52
2022-12-15T15:00:30.785Z,99510.60
2022-12-15T15:03:24.184Z,99515.98
2022-12-15T15:06:03.822Z,99527.06
2022-12-15T15:08:37.000Z,99536.50
2022-12-15T15:11:24.026Z,99543.14
2022-12-15T15:14:19.007Z,99550.98
2022-12-15T15:17:01.387Z,99549.98
2022-12-15T15:19:30.695Z,99555.83
2022-12-15T15:22:02.018Z,99560.43
2022-12-15T15:24:34.838Z,99562.76
2022-12-15T15:27:39.505Z,99571.16
2022-12-15T15:30:27.911Z,99581.63
2022-12-15T15:32:57.935Z,99586.80
2022-12-15T15:35:31.545Z,99593.95
2022-12-15T15:38:22.016Z,99598.20
2022-12-15T15:40:55.778Z,99603.81
2022-12-15T15:43:25.623Z,99614.11
2022-12-15T15:46:06.649Z,99616.48
2022-12-15T15:48:42.221Z,99619.77
2022-12-15T15:51:10.840Z,99625.08
2022-12-15T15:53:39.701Z,99632.84
2022-12-15T15:56:12.083Z,99637.71
2022-12-15T15:58:40.673Z,99641.13
2022-12-15T16:01:13.133Z,99645.38
2022-12-15T16:03:42.321Z,99647.66
2022-12-15T16:06:21.932Z,99645.17
2022-12-15T16:08:53.208Z,99641.36
2022-12-15T16:11:27.919Z,99637.10
2022-12-15T16:13:56.272Z,99631.04
2022-12-15T16:16:30.231Z,99630.54
2022-12-15T16:18:58.696Z,99626.89
2022-12-15T16:21:27.960Z,99626.50
2022-12-15T16:23:59.053Z,99621.17
2022-12-15T16:26:32.538Z,99624.13
2022-12-15T16:29:00.866Z,99629.65
2022-12-15T16:31:38.953Z,99636.63
2022-12-15T16:34:09.560Z,99647.34
2022-12-15T16:36:38.442Z,99648.77
2022-12-15T16:39:37.701Z,99651.12
2022-12-15T16:42:09.782Z,99653.58
2022-12-15T16:44:37.930Z,99656.36
2022-12-15T16:47:05.958Z,99657.39
2022-12-15T16:49:39.963Z,99656.80
2022-12-15T16:52:19.590Z,99660.67
2022-12-15T16:54:49.653Z,99663.17
2022-12-15T16:57:17.999Z,99663.16
2022-12-15T16:59:46.188Z,99662.06
2022-12-15T17:02:29.866Z,99662.11
2022-12-15T17:04:58.579Z,99663.43
2022-12-15T17:07:27.949Z,99659.48
2022-12-15T17:09:56.639Z,99661.33
2022-12-15T17:12:25.195Z,99660.42
2022-12-15T17:14:53.713Z,99663.60
2022-12-15T17:17:22.026Z,99668.48
2022-12-15T17:20:32.692Z,99671.79
2022-12-15T17:22:38.677Z,99676.39
2022-12-15T17:25:15.761Z,99682.95
2022-12-15T17:27:44.637Z,99695.20
2022-12-15T17:30:15.123Z,99701.77
2022-12-15T17:32:43.903Z,99705.55
2022-12-15T17:35:12.652Z,99708.38
2022-12-15T17:37:41.350Z,99706.48
2022-12-15T17:40:22.626Z,99716.42
2022-12-15T17:42:51.080Z,99720.81
2022-12-15T17:45:24.401Z,99723.65
2022-12-15T17:47:52.604Z,99732.44
2022-12-15T17:50:20.797Z,99735.84
2022-12-15T17:52:49.026Z,99742.25
2022-12-15T17:55:21.819Z,99743.30
2022-12-15T17:57:51.266Z,99746.23
2022-12-15T18:00:31.607Z,99749.88
2022-12-15T18:03:00.887Z,99757.73
2022-12-15T18:05:30.424Z,99765.09
2022-12-15T18:08:02.806Z,99768.13
2022-12-15T18:10:38.145Z,99771.02
2022-12-15T18:13:19.602Z,99773.90
2022-12-15T18:15:48.724Z,99777.60
2022-12-15T18:18:18.583Z,99783.46
2022-12-15T18:20:47.745Z,99784.25
2022-12-15T18:23:20.162Z,99788.39
2022-12-15T18:25:48.729Z,99788.20
2022-12-15T18:28:19.541Z,99792.10
2022-12-15T18:30:52.509Z,99794.84
2022-12-15T18:33:22.645Z,99799.59
2022-12-15T18:35:52.542Z,99800.33
2022-12-15T18:38:24.813Z,99806.36
2022-12-15T18:40:59.458Z,99812.41
2022-12-15T18:43:35.353Z,99819.84
2022-12-15T18:46:03.651Z,99821.05
2022-12-15T18:48:33.904Z,99829.98
2022-12-15T18:51:07.159Z,99833.65
2022-12-15T18:53:36.846Z,99833.26
2022-12-15T18:56:07.750Z,99839.32
2022-12-15T18:58:38.406Z,99841.54
2022-12-15T19:01:08.511Z,99838.55
2022-12-15T19:03:37.786Z,99838.04
2022-12-15T19:06:35.694Z,99842.85
2022-12-15T19:09:24.199Z,99844.80
2022-12-15T19:11:52.542Z,99844.68
2022-12-15T19:14:20.864Z,99851.09
2022-12-15T19:16:49.164Z,99852.80
2022-12-15T19:19:17.608Z,99852.21
2022-12-15T19:21:45.628Z,99857.52
2022-12-15T19:24:16.763Z,99860.86
2022-12-15T19:26:44.868Z,99862.14
2022-12-15T19:29:21.582Z,99863.11
2022-12-15T19:31:49.965Z,99866.77
2022-12-15T19:34:18.172Z,99866.45
2022-12-15T19:36:46.338Z,99865.45
2022-12-15T19:39:24.608Z,99857.91
2022-12-15T19:41:52.789Z,99863.11
2022-12-15T19:44:22.929Z,99864.69
2022-12-15T19:46:51.026Z,99866.17
2022-12-15T19:49:19.238Z,99869.14
2022-12-15T19:51:47.402Z,99868.64
2022-12-15T19:54:21.896Z,99869.49
2022-12-15T19:56:49.850Z,99870.57
2022-12-15T19:59:26.707Z,99871.04
2022-12-15T20:01:54.957Z,99874.81
2022-12-15T20:04:24.508Z,99880.52
2022-12-15T20:06:52.940Z,99882.30
2022-12-15T20:09:21.139Z,99878.31
2022-12-15T20:11:49.327Z,99874.87
2022-12-15T20:14:17.986Z,99874.34
2022-12-15T20:16:46.472Z,99873.60
2022-12-15T20:19:14.557Z,99875.64
2022-12-15T20:21:42.882Z,99874.62
2022-12-15T20:24:19.486Z,99875.77
2022-12-15T20:26:49.006Z,99880.70
2022-12-15T20:29:28.462Z,99887.73
2022-12-15T20:31:58.465Z,99892.30
2022-12-15T20:34:26.601Z,99892.94
2022-12-15T20:36:54.747Z,99897.52
2022-12-15T20:39:31.155Z,99900.73
2022-12-15T20:41:59.742Z,99902.59
2022-12-15T20:44:27.870Z,99907.45
2022-12-15T20:46:56.567Z,99908.08
2022-12-15T20:49:24.734Z,99910.58
2022-12-15T20:51:52.776Z,99916.35
2022-12-15T20:54:22.349Z,99910.77
2022-12-15T20:56:50.806Z,99917.17
2022-12-15T20:59:19.299Z,99920.78
2022-12-15T21:01:47.840Z,99922.95
2022-12-15T21:04:30.481Z,99928.06
2022-12-15T21:06:58.941Z,99930.47
2022-12-15T21:09:27.058Z,99935.17
2022-12-15T21:11:55.212Z,99935.69
2022-12-15T21:14:24.296Z,99941.23
2022-12-15T21:16:53.017Z,99946.27
2022-12-15T21:19:22.345Z,99943.56
2022-12-15T21:21:55.058Z,99943.39
2022-12-15T21:24:26.109Z,99945.08
2022-12-15T21:26:55.472Z,99945.81
2022-12-15T21:29:26.089Z,99940.77
2022-12-15T21:31:54.233Z,99945.44
2022-12-15T21:34:23.271Z,99944.82
2022-12-15T21:36:54.914Z,99942.75
2022-12-15T21:39:35.252Z,99942.04
2022-12-15T21:42:07.771Z,99945.06
2022-12-15T21:44:36.338Z,99951.16
2022-12-15T21:47:32.120Z,99947.27
2022-12-15T21:50:00.445Z,99944.89
2022-12-15T21:52:28.584Z,99949.46
2022-12-15T21:54:56.796Z,99948.58
2022-12-15T21:57:24.913Z,99960.19
2022-12-15T21:59:53.044Z,99962.75
2022-12-15T22:02:27.125Z,99965.95
2022-12-15T22:04:55.509Z,99967.48
2022-12-15T22:07:23.480Z,99968.84
2022-12-15T22:09:51.914Z,99964.04
2022-12-15T22:12:22.770Z,99969.08
2022-12-15T22:14:50.922Z,99968.60
2022-12-15T22:17:22.185Z,99969.73
2022-12-15T22:19:50.295Z,99978.85
2022-12-15T22:22:18.476Z,99977.73
2022-12-15T22:24:46.678Z,99983.01
2022-12-15T22:27:23.743Z,99987.23
2022-12-15T22:29:52.390Z,99982.75
2022-12-15T22:32:20.376Z,99985.23
2022-12-15T22:34:48.422Z,99979.33
2022-12-15T22:37:16.822Z,99980.76
2022-12-15T22:39:44.904Z,99982.20
2022-12-15T22:42:17.146Z,99983.70
2022-12-15T22:44:45.764Z,99984.26
2022-12-15T22:47:13.924Z,99987.44
2022-12-15T22:49:42.726Z,99987.69
2022-12-15T22:52:19.436Z,99992.25
2022-12-15T22:54:48.027Z,99995.61
2022-12-15T22:57:22.782Z,99996.65
2022-12-15T23:00:10.984Z,100002.65
2022-12-15T23:02:41.865Z,100000.33
2022-12-15T23:05:13.217Z,100001.21
2022-12-15T23:07:42.310Z,99998.41
2022-12-15T23:10:12.268Z,99999.52
2022-12-15T23:12:40.893Z,99997.94
2022-12-15T23:15:09.849Z,99998.98
2022-12-15T23:17:37.957Z,100004.02
2022-12-15T23:20:06.644Z,100003.21
2022-12-15T23:22:34.838Z,100006.16
2022-12-15T23:25:02.954Z,100010.19
2022-12-15T23:27:31.521Z,100012.38
2022-12-15T23:29:59.961Z,100013.21
2022-12-15T23:32:28.033Z,100009.13
2022-12-15T23:34:56.262Z,100008.97
2022-12-15T23:37:24.275Z,100010.12
2022-12-15T23:39:52.212Z,100005.16
2022-12-15T23:42:20.963Z,100005.40
2022-12-15T23:44:48.983Z,100002.63
2022-12-15T23:47:17.351Z,100003.98
2022-12-15T23:49:45.689Z,100001.98
2022-12-15T23:52:13.842Z,100003.35
2022-12-15T23:54:42.064Z,100001.32
2022-12-15T23:57:10.434Z,100002.02
2022-12-15T23:59:38.798Z,99999.46
